createdAt,value
2023-04-01T00:00:17.263Z,21.99
2023-04-01T00:02:48.008Z,21.96
2023-04-01T00:05:18.948Z,21.96
2023-04-01T00:07:49.490Z,21.93
2023-04-01T00:10:20.035Z,21.92
2023-04-01T00:12:50.882Z,22.03
2023-04-01T00:15:21.481Z,21.94
2023-04-01T00:17:51.664Z,21.92
2023-04-01T00:20:22.090Z,21.78
2023-04-01T00:22:52.799Z,21.66
2023-04-01T00:25:24.256Z,21.59
2023-04-01T00:27:54.875Z,21.45
2023-04-01T00:30:24.949Z,21.35
2023-04-01T00:32:56.554Z,21.27
2023-04-01T00:35:27.584Z,21.20
2023-04-01T00:37:59.873Z,21.20
2023-04-01T00:40:40.964Z,21.14
2023-04-01T00:43:23.591Z,21.11
2023-04-01T00:45:55.724Z,21.05
2023-04-01T00:48:31.378Z,21.08
2023-04-01T00:51:06.524Z,20.97
2023-04-01T00:53:41.122Z,20.94
2023-04-01T00:56:16.812Z,20.98
2023-04-01T00:58:55.299Z,20.91
2023-04-01T01:01:27.382Z,20.81
2023-04-01T01:03:57.625Z,20.80
2023-04-01T01:07:00.005Z,20.70
2023-04-01T01:09:42.280Z,20.66
2023-04-01T01:12:30.869Z,20.69
2023-04-01T01:15:32.973Z,20.56
2023-04-01T01:18:27.128Z,20.56
2023-04-01T01:20:57.493Z,20.60
2023-04-01T01:23:44.216Z,20.56
2023-04-01T01:26:34.859Z,20.47
2023-04-01T01:29:27.339Z,20.49
2023-04-01T01:32:18.497Z,20.32
2023-04-01T01:35:15.639Z,20.19
2023-04-01T01:37:49.421Z,20.15
2023-04-01T01:40:20.875Z,20.22
2023-04-01T01:42:57.927Z,20.18
2023-04-01T01:45:30.235Z,20.09
2023-04-01T01:48:03.084Z,19.95
2023-04-01T01:50:34.500Z,19.78
2023-04-01T01:53:08.758Z,19.70
2023-04-01T01:55:41.749Z,19.64
2023-04-01T01:58:20.504Z,19.57
2023-04-01T02:01:00.154Z,19.61
2023-04-01T02:03:37.186Z,19.51
2023-04-01T02:06:13.112Z,19.53
2023-04-01T02:08:53.658Z,19.75
2023-04-01T02:11:33.883Z,19.77
2023-04-01T02:14:19.201Z,19.82
2023-04-01T02:16:52.190Z,19.78
2023-04-01T02:19:26.810Z,19.63
2023-04-01T02:22:02.882Z,19.56
2023-04-01T02:24:36.140Z,19.70
2023-04-01T02:27:07.037Z,19.63
2023-04-01T02:29:37.359Z,19.54
2023-04-01T02:32:12.276Z,19.63
2023-04-01T02:34:44.948Z,20.01
2023-04-01T02:37:16.134Z,19.92
2023-04-01T02:39:46.767Z,19.67
2023-04-01T02:42:18.146Z,19.56
2023-04-01T02:44:48.886Z,19.43
2023-04-01T02:47:19.617Z,19.41
2023-04-01T02:49:49.486Z,19.46
2023-04-01T02:52:19.786Z,19.45
2023-04-01T02:54:49.542Z,19.37
2023-04-01T02:57:20.752Z,19.92
2023-04-01T02:59:51.348Z,20.16
2023-04-01T03:02:21.472Z,20.21
2023-04-01T03:04:51.780Z,20.14
2023-04-01T03:07:21.564Z,20.02
2023-04-01T03:09:52.901Z,20.01
2023-04-01T03:12:24.405Z,20.12
2023-04-01T03:14:55.553Z,20.07
2023-04-01T03:17:26.201Z,20.19
2023-04-01T03:19:57.951Z,20.14
2023-04-01T03:22:28.551Z,20.11
2023-04-01T03:24:58.644Z,20.07
2023-04-01T03:27:29.048Z,20.28
2023-04-01T03:29:59.668Z,20.26
2023-04-01T03:32:30.280Z,20.08
2023-04-01T03:35:00.502Z,20.11
2023-04-01T03:37:30.956Z,20.15
2023-04-01T03:40:01.120Z,20.22
2023-04-01T03:42:33.488Z,20.16
2023-04-01T03:45:05.082Z,20.16
2023-04-01T03:47:36.651Z,20.09
2023-04-01T03:50:08.309Z,20.12
2023-04-01T03:52:38.500Z,20.11
2023-04-01T03:55:08.880Z,20.09
2023-04-01T03:57:41.820Z,20.19
2023-04-01T04:00:20.574Z,20.16
2023-04-01T04:02:58.208Z,20.02
2023-04-01T04:05:33.773Z,19.98
2023-04-01T04:08:04.764Z,19.97
2023-04-01T04:10:37.227Z,19.91
2023-04-01T04:13:07.927Z,19.88
2023-04-01T04:15:42.998Z,19.94
2023-04-01T04:18:13.632Z,19.85
2023-04-01T04:20:51.059Z,19.77
2023-04-01T04:23:22.576Z,19.63
2023-04-01T04:26:08.195Z,19.51
2023-04-01T04:28:38.894Z,19.39
2023-04-01T04:31:10.080Z,19.29
2023-04-01T04:33:41.753Z,19.16
2023-04-01T04:36:12.059Z,19.09
2023-04-01T04:38:42.580Z,18.99
2023-04-01T04:41:15.275Z,18.88
2023-04-01T04:43:57.502Z,18.79
2023-04-01T04:46:28.275Z,18.58
2023-04-01T04:49:05.197Z,18.47
2023-04-01T04:51:37.872Z,18.30
2023-04-01T04:54:09.449Z,18.17
2023-04-01T04:56:56.960Z,18.14
2023-04-01T04:59:29.502Z,18.13
2023-04-01T05:02:14.604Z,18.03
2023-04-01T05:04:45.158Z,17.96
2023-04-01T05:07:15.215Z,18.00
2023-04-01T05:09:45.932Z,17.99
2023-04-01T05:12:18.060Z,17.99
2023-04-01T05:14:59.698Z,17.93
2023-04-01T05:17:30.497Z,17.94
2023-04-01T05:20:01.112Z,17.90
2023-04-01T05:22:32.639Z,17.89
2023-04-01T05:25:03.271Z,17.86
2023-04-01T05:27:34.667Z,17.81
2023-04-01T05:30:05.060Z,17.73
2023-04-01T05:33:01.973Z,17.68
2023-04-01T05:35:33.050Z,17.52
2023-04-01T05:38:05.110Z,17.49
2023-04-01T05:40:35.160Z,17.51
2023-04-01T05:43:05.365Z,17.53
2023-04-01T05:45:38.471Z,17.46
2023-04-01T05:48:17.654Z,17.38
2023-04-01T05:50:47.820Z,17.24
2023-04-01T05:53:17.582Z,17.23
2023-04-01T05:55:47.813Z,17.23
2023-04-01T05:58:18.284Z,17.17
2023-04-01T06:01:02.310Z,17.17
2023-04-01T06:03:39.340Z,17.07
2023-04-01T06:06:25.826Z,16.91
2023-04-01T06:09:07.773Z,16.77
2023-04-01T06:12:03.448Z,16.67
2023-04-01T06:14:57.475Z,16.62
2023-04-01T06:17:40.486Z,16.63
2023-04-01T06:20:17.738Z,16.63
2023-04-01T06:23:12.780Z,16.59
2023-04-01T06:25:56.214Z,16.53
2023-04-01T06:28:47.879Z,16.49
2023-04-01T06:32:18.594Z,16.35
2023-04-01T06:35:02.394Z,16.41
2023-04-01T06:37:47.552Z,16.36
2023-04-01T06:41:01.861Z,16.53
2023-04-01T06:44:12.702Z,16.44
2023-04-01T06:47:18.249Z,16.45
2023-04-01T06:50:32.251Z,16.39
2023-04-01T06:53:35.505Z,16.19
2023-04-01T06:56:32.063Z,15.97
2023-04-01T06:59:16.182Z,15.77
2023-04-01T07:01:59.020Z,15.81
2023-04-01T07:04:41.756Z,15.85
2023-04-01T07:07:22.567Z,15.84
2023-04-01T07:10:18.291Z,15.85
2023-04-01T07:13:45.271Z,16.01
2023-04-01T07:16:54.327Z,16.01
2023-04-01T07:19:47.547Z,16.02
2023-04-01T07:22:45.696Z,16.04
2023-04-01T07:25:36.523Z,15.97
2023-04-01T07:28:38.981Z,16.00
2023-04-01T07:31:44.296Z,15.85
2023-04-01T07:34:31.151Z,15.80
2023-04-01T07:37:29.157Z,15.76
2023-04-01T07:39:59.647Z,15.58
2023-04-01T07:43:03.829Z,15.40
2023-04-01T07:45:58.184Z,15.25
2023-04-01T07:48:35.020Z,14.98
2023-04-01T07:51:18.823Z,15.00
2023-04-01T07:53:59.405Z,14.93
2023-04-01T07:57:07.959Z,14.67
2023-04-01T07:59:55.264Z,14.51
2023-04-01T08:02:43.977Z,14.33
2023-04-01T08:05:28.130Z,14.36
2023-04-01T08:08:24.447Z,14.29
2023-04-01T08:11:29.414Z,14.16
2023-04-01T08:14:30.492Z,14.03
2023-04-01T08:17:22.830Z,13.83
2023-04-01T08:19:59.179Z,13.69
2023-04-01T08:22:54.090Z,13.68
2023-04-01T08:25:33.488Z,13.65
2023-04-01T08:28:28.419Z,13.57
2023-04-01T08:31:03.437Z,13.54
2023-04-01T08:33:35.043Z,13.51
2023-04-01T08:36:34.971Z,13.40
2023-04-01T08:39:28.881Z,13.40
2023-04-01T08:42:17.326Z,13.35
2023-04-01T08:45:07.159Z,13.37
2023-04-01T08:48:02.778Z,13.44
2023-04-01T08:50:51.568Z,13.35
2023-04-01T08:54:02.294Z,13.28
2023-04-01T08:57:04.407Z,13.32
2023-04-01T08:59:57.676Z,13.25
2023-04-01T09:03:06.239Z,13.25
2023-04-01T09:05:50.548Z,13.30
2023-04-01T09:08:35.817Z,13.25
2023-04-01T09:11:20.344Z,13.18
2023-04-01T09:14:23.522Z,13.04
2023-04-01T09:17:30.126Z,12.96
2023-04-01T09:20:24.320Z,12.89
2023-04-01T09:23:23.355Z,12.80
2023-04-01T09:26:17.140Z,12.76
2023-04-01T09:28:57.268Z,12.73
2023-04-01T09:32:04.967Z,12.63
2023-04-01T09:34:57.387Z,12.57
2023-04-01T09:38:13.351Z,12.55
2023-04-01T09:40:54.485Z,12.56
2023-04-01T09:43:59.036Z,12.60
2023-04-01T09:46:37.792Z,12.60
2023-04-01T09:49:27.411Z,12.55
2023-04-01T09:52:20.794Z,12.53
2023-04-01T09:54:57.422Z,12.56
2023-04-01T09:57:42.860Z,12.59
2023-04-01T10:00:35.529Z,12.55
2023-04-01T10:03:28.466Z,12.59
2023-04-01T10:06:37.990Z,12.66
2023-04-01T10:09:36.405Z,12.84
2023-04-01T10:12:34.649Z,13.15
2023-04-01T10:15:14.822Z,13.41
2023-04-01T10:18:07.119Z,13.75
2023-04-01T10:21:09.988Z,13.99
2023-04-01T10:24:05.508Z,14.10
2023-04-01T10:26:49.803Z,14.47
2023-04-01T10:30:03.737Z,14.63
2023-04-01T10:33:08.901Z,14.72
2023-04-01T10:35:45.545Z,14.92
2023-04-01T10:38:26.900Z,15.06
2023-04-01T10:41:02.822Z,15.20
2023-04-01T10:44:09.586Z,15.40
2023-04-01T10:46:49.794Z,15.53
2023-04-01T10:50:07.777Z,15.67
2023-04-01T10:52:56.887Z,15.83
2023-04-01T10:56:03.060Z,15.94
2023-04-01T10:59:36.966Z,16.12
2023-04-01T11:02:19.187Z,16.38
2023-04-01T11:05:43.598Z,16.73
2023-04-01T11:08:25.887Z,17.25
2023-04-01T11:11:19.732Z,17.48
2023-04-01T11:14:05.096Z,17.78
2023-04-01T11:16:53.775Z,17.99
2023-04-01T11:19:29.662Z,18.40
2023-04-01T11:22:36.968Z,20.40
2023-04-01T11:25:40.748Z,24.12
2023-04-01T11:28:47.292Z,25.25
2023-04-01T11:31:40.456Z,26.31
2023-04-01T11:34:22.823Z,26.10
2023-04-01T11:37:11.518Z,26.37
2023-04-01T11:40:08.185Z,26.23
2023-04-01T11:43:26.182Z,26.47
2023-04-01T11:46:25.823Z,26.64
2023-04-01T11:49:10.787Z,26.88
2023-04-01T11:52:15.936Z,26.39
2023-04-01T11:54:56.187Z,26.52
2023-04-01T11:57:41.449Z,26.61
2023-04-01T12:00:24.818Z,26.61
2023-04-01T12:03:24.957Z,26.87
2023-04-01T12:06:10.228Z,26.94
2023-04-01T12:08:59.150Z,26.47
2023-04-01T12:11:44.204Z,26.13
2023-04-01T12:14:24.160Z,25.21
2023-04-01T12:17:10.245Z,25.65
2023-04-01T12:20:02.099Z,26.10
2023-04-01T12:23:07.919Z,26.16
2023-04-01T12:25:49.768Z,25.66
2023-04-01T12:28:20.942Z,25.18
2023-04-01T12:31:06.759Z,25.49
2023-04-01T12:34:05.885Z,25.44
2023-04-01T12:37:16.866Z,26.06
2023-04-01T12:40:24.854Z,25.02
2023-04-01T12:43:17.220Z,25.41
2023-04-01T12:46:10.726Z,25.07
2023-04-01T12:48:54.797Z,24.60
2023-04-01T12:51:30.043Z,24.94
2023-04-01T12:54:18.577Z,24.90
2023-04-01T12:57:22.411Z,25.20
2023-04-01T13:00:03.102Z,25.79
2023-04-01T13:02:57.352Z,24.96
2023-04-01T13:05:40.592Z,25.42
2023-04-01T13:08:26.176Z,25.94
2023-04-01T13:11:15.197Z,24.73
2023-04-01T13:14:31.433Z,25.04
2023-04-01T13:17:34.433Z,25.37
2023-04-01T13:20:33.134Z,25.23
2023-04-01T13:23:21.045Z,25.23
2023-04-01T13:26:13.503Z,25.39
2023-04-01T13:29:14.936Z,25.69
2023-04-01T13:31:54.305Z,25.23
2023-04-01T13:34:42.823Z,25.20
2023-04-01T13:37:36.299Z,25.54
2023-04-01T13:40:19.438Z,25.88
2023-04-01T13:42:57.134Z,25.45
2023-04-01T13:45:49.007Z,24.77
2023-04-01T13:48:53.998Z,25.64
2023-04-01T13:51:34.202Z,26.03
2023-04-01T13:54:29.357Z,26.12
2023-04-01T13:57:17.806Z,26.62
2023-04-01T14:00:39.100Z,26.03
2023-04-01T14:03:28.069Z,25.69
2023-04-01T14:06:43.034Z,26.02
2023-04-01T14:09:47.408Z,26.22
2023-04-01T14:13:02.622Z,26.26
2023-04-01T14:15:56.998Z,26.29
2023-04-01T14:18:56.357Z,25.89
2023-04-01T14:22:15.687Z,25.83
2023-04-01T14:25:14.377Z,25.86
2023-04-01T14:27:58.328Z,26.23
2023-04-01T14:30:55.922Z,26.51
2023-04-01T14:33:45.720Z,26.30
2023-04-01T14:36:18.687Z,25.65
2023-04-01T14:39:26.376Z,25.85
2023-04-01T14:42:30.170Z,26.03
2023-04-01T14:45:06.400Z,26.51
2023-04-01T14:47:49.205Z,26.22
2023-04-01T14:50:32.937Z,26.33
2023-04-01T14:53:29.600Z,26.33
2023-04-01T14:56:02.079Z,26.70
2023-04-01T14:58:48.949Z,25.97
2023-04-01T15:01:46.871Z,26.04
2023-04-01T15:04:49.859Z,26.82
2023-04-01T15:07:37.475Z,27.01
2023-04-01T15:10:16.501Z,27.18
2023-04-01T15:13:13.901Z,27.35
2023-04-01T15:16:20.987Z,26.88
2023-04-01T15:18:51.810Z,27.22
2023-04-01T15:21:22.042Z,26.60
2023-04-01T15:24:16.876Z,27.29
2023-04-01T15:27:23.767Z,27.56
2023-04-01T15:30:23.160Z,27.16
2023-04-01T15:33:14.299Z,26.71
2023-04-01T15:35:47.816Z,26.34
2023-04-01T15:38:48.502Z,26.40
2023-04-01T15:41:28.116Z,27.33
2023-04-01T15:43:58.529Z,27.15
2023-04-01T15:46:50.602Z,27.05
2023-04-01T15:49:53.934Z,27.30
2023-04-01T15:52:45.069Z,27.64
2023-04-01T15:55:21.704Z,27.32
2023-04-01T15:58:05.360Z,27.25
2023-04-01T16:01:20.494Z,27.53
2023-04-01T16:04:02.653Z,26.89
2023-04-01T16:06:47.149Z,27.25
2023-04-01T16:09:42.706Z,27.50
2023-04-01T16:12:39.257Z,28.14
2023-04-01T16:15:27.860Z,27.01
2023-04-01T16:18:39.486Z,27.26
2023-04-01T16:21:36.120Z,27.87
2023-04-01T16:24:18.950Z,27.57
2023-04-01T16:27:20.933Z,27.97
2023-04-01T16:29:56.247Z,27.81
2023-04-01T16:32:53.426Z,27.63
2023-04-01T16:35:26.186Z,27.45
2023-04-01T16:38:33.249Z,27.70
2023-04-01T16:41:28.356Z,27.36
2023-04-01T16:44:21.578Z,27.84
2023-04-01T16:47:02.114Z,27.74
2023-04-01T16:50:01.802Z,27.80
2023-04-01T16:53:05.131Z,28.15
2023-04-01T16:56:02.669Z,28.48
2023-04-01T16:58:40.505Z,28.55
2023-04-01T17:01:25.573Z,28.19
2023-04-01T17:04:07.213Z,28.27
2023-04-01T17:07:09.454Z,29.07
2023-04-01T17:10:00.308Z,28.73
2023-04-01T17:12:43.373Z,28.12
2023-04-01T17:15:37.438Z,28.76
2023-04-01T17:18:37.336Z,29.21
2023-04-01T17:21:40.329Z,28.19
2023-04-01T17:24:22.730Z,28.57
2023-04-01T17:27:19.538Z,29.39
2023-04-01T17:30:02.150Z,28.53
2023-04-01T17:33:15.280Z,29.59
2023-04-01T17:35:56.797Z,29.85
2023-04-01T17:39:06.067Z,30.36
2023-04-01T17:41:41.047Z,30.16
2023-04-01T17:44:36.037Z,30.36
2023-04-01T17:47:17.848Z,29.43
2023-04-01T17:50:40.065Z,29.47
2023-04-01T17:53:31.126Z,29.17
2023-04-01T17:56:25.340Z,29.79
2023-04-01T17:59:22.664Z,29.90
2023-04-01T18:01:55.903Z,27.96
2023-04-01T18:04:49.407Z,29.13
2023-04-01T18:07:48.107Z,27.12
2023-04-01T18:10:41.586Z,28.41
2023-04-01T18:13:29.908Z,30.01
2023-04-01T18:16:09.180Z,30.01
2023-04-01T18:19:15.797Z,28.70
2023-04-01T18:22:11.714Z,30.19
2023-04-01T18:24:49.244Z,31.14
2023-04-01T18:27:31.545Z,31.60
2023-04-01T18:30:05.756Z,32.58
2023-04-01T18:32:51.620Z,32.27
2023-04-01T18:35:22.271Z,33.41
2023-04-01T18:38:17.660Z,28.76
2023-04-01T18:40:57.316Z,28.29
2023-04-01T18:43:42.491Z,31.12
2023-04-01T18:46:26.626Z,31.19
2023-04-01T18:49:28.344Z,30.44
2023-04-01T18:52:06.399Z,32.20
2023-04-01T18:55:07.750Z,33.14
2023-04-01T18:57:55.796Z,31.74
2023-04-01T19:00:30.926Z,30.74
2023-04-01T19:03:11.376Z,31.51
2023-04-01T19:05:45.106Z,28.27
2023-04-01T19:08:21.369Z,27.25
2023-04-01T19:10:54.580Z,29.41
2023-04-01T19:13:37.437Z,32.59
2023-04-01T19:16:45.793Z,31.54
2023-04-01T19:19:37.160Z,33.09
2023-04-01T19:22:49.993Z,32.23
2023-04-01T19:25:30.281Z,27.02
2023-04-01T19:28:31.157Z,25.79
2023-04-01T19:31:06.544Z,25.42
2023-04-01T19:33:46.216Z,25.45
2023-04-01T19:36:23.879Z,25.13
2023-04-01T19:39:33.079Z,24.90
2023-04-01T19:42:19.344Z,24.15
2023-04-01T19:45:07.298Z,23.88
2023-04-01T19:48:14.309Z,23.34
2023-04-01T19:51:00.595Z,23.02
2023-04-01T19:54:02.070Z,22.72
2023-04-01T19:57:04.133Z,22.54
2023-04-01T19:59:34.826Z,22.21
2023-04-01T20:02:11.795Z,21.93
2023-04-01T20:04:57.768Z,21.72
2023-04-01T20:07:41.028Z,21.51
2023-04-01T20:10:35.416Z,21.32
2023-04-01T20:13:31.249Z,21.17
2023-04-01T20:16:12.943Z,20.90
2023-04-01T20:18:54.896Z,20.79
2023-04-01T20:21:45.885Z,20.83
2023-04-01T20:24:48.137Z,20.84
2023-04-01T20:27:35.838Z,20.83
2023-04-01T20:30:28.778Z,20.80
2023-04-01T20:33:12.904Z,20.73
2023-04-01T20:35:49.462Z,20.66
2023-04-01T20:38:40.384Z,20.65
2023-04-01T20:41:26.156Z,20.52
2023-04-01T20:44:24.116Z,20.40
2023-04-01T20:47:00.783Z,20.42
2023-04-01T20:49:46.624Z,20.26
2023-04-01T20:52:17.085Z,20.11
2023-04-01T20:55:11.901Z,19.91
2023-04-01T20:57:55.131Z,19.73
2023-04-01T21:00:37.870Z,19.60
2023-04-01T21:03:34.242Z,19.53
2023-04-01T21:06:32.460Z,19.39
2023-04-01T21:09:55.222Z,19.22
2023-04-01T21:12:29.965Z,19.05
2023-04-01T21:15:13.284Z,18.88
2023-04-01T21:18:10.948Z,18.81
2023-04-01T21:21:02.027Z,18.72
2023-04-01T21:23:34.991Z,18.55
2023-04-01T21:26:33.932Z,18.40
2023-04-01T21:29:36.514Z,18.30
2023-04-01T21:32:35.262Z,18.17
2023-04-01T21:35:23.944Z,18.07
2023-04-01T21:38:26.465Z,18.02
2023-04-01T21:41:03.226Z,17.93
2023-04-01T21:44:06.792Z,17.83
2023-04-01T21:47:04.706Z,17.73
2023-04-01T21:50:18.133Z,17.63
2023-04-01T21:53:19.853Z,17.55
2023-04-01T21:55:58.838Z,17.49
2023-04-01T21:58:47.325Z,17.41
2023-04-01T22:02:06.319Z,17.39
2023-04-01T22:05:03.048Z,17.35
2023-04-01T22:07:56.525Z,17.31
2023-04-01T22:10:41.164Z,17.24
2023-04-01T22:13:42.224Z,17.17
2023-04-01T22:17:00.506Z,17.17
2023-04-01T22:19:58.750Z,17.21
2023-04-01T22:22:53.370Z,17.21
2023-04-01T22:25:47.443Z,17.27
2023-04-01T22:28:21.286Z,17.21
2023-04-01T22:31:08.672Z,17.17
2023-04-01T22:34:04.352Z,17.07
2023-04-01T22:36:39.969Z,16.97
2023-04-01T22:40:00.522Z,16.91
2023-04-01T22:43:01.410Z,16.87
2023-04-01T22:46:03.382Z,16.76
2023-04-01T22:49:07.023Z,16.72
2023-04-01T22:51:50.156Z,16.65
2023-04-01T22:54:47.166Z,16.57
2023-04-01T22:57:42.511Z,16.53
2023-04-01T23:00:18.028Z,16.51
2023-04-01T23:03:21.859Z,16.42
2023-04-01T23:06:05.352Z,16.42
2023-04-01T23:08:57.170Z,16.44
2023-04-01T23:11:36.115Z,16.42
2023-04-01T23:14:26.054Z,16.36
2023-04-01T23:17:33.733Z,16.35
2023-04-01T23:20:13.150Z,16.29
2023-04-01T23:23:23.981Z,16.26
2023-04-01T23:26:17.616Z,16.18
2023-04-01T23:28:58.538Z,16.16
2023-04-01T23:31:42.440Z,16.16
2023-04-01T23:34:15.798Z,16.14
2023-04-01T23:36:52.009Z,16.12
2023-04-01T23:40:03.341Z,16.05
2023-04-01T23:42:42.811Z,16.02
2023-04-01T23:45:19.427Z,16.01
2023-04-01T23:47:53.791Z,15.98
2023-04-01T23:50:28.803Z,15.93
2023-04-01T23:53:18.204Z,15.93
2023-04-01T23:55:49.432Z,15.90
2023-04-01T23:58:20.578Z,15.90
